createdAt,value
2023-04-01T00:00:31.010Z,91800.00
2023-04-01T00:01:31.006Z,91804.00
2023-04-01T00:02:31.043Z,91804.00
2023-04-01T00:03:31.073Z,91800.00
2023-04-01T00:04:31.050Z,91800.00
2023-04-01T00:05:31.209Z,91798.00
2023-04-01T00:06:30.903Z,91796.00
2023-04-01T00:07:31.038Z,91798.00
2023-04-01T00:08:30.917Z,91802.00
2023-04-01T00:09:30.959Z,91798.00
2023-04-01T00:10:30.918Z,91792.00
2023-04-01T00:11:30.924Z,91790.00
2023-04-01T00:12:30.903Z,91792.00
2023-04-01T00:13:30.897Z,91788.00
2023-04-01T00:14:30.905Z,91790.00
2023-04-01T00:15:31.153Z,91790.00
2023-04-01T00:16:30.959Z,91790.00
2023-04-01T00:17:30.962Z,91788.00
2023-04-01T00:18:30.905Z,91784.00
2023-04-01T00:19:30.910Z,91781.00
2023-04-01T00:20:30.898Z,91784.00
2023-04-01T00:21:30.918Z,91784.00
2023-04-01T00:22:30.921Z,91786.00
2023-04-01T00:23:30.957Z,91784.00
2023-04-01T00:24:30.994Z,91786.00
2023-04-01T00:25:31.363Z,91786.00
2023-04-01T00:26:31.020Z,91786.00
2023-04-01T00:27:31.027Z,91782.00
2023-04-01T00:28:31.080Z,91786.00
2023-04-01T00:29:31.056Z,91786.00
2023-04-01T00:30:31.069Z,91782.00
2023-04-01T00:31:31.117Z,91784.00
2023-04-01T00:32:31.091Z,91784.00
2023-04-01T00:33:31.045Z,91782.00
2023-04-01T00:34:31.046Z,91779.00
2023-04-01T00:35:31.202Z,91779.00
2023-04-01T00:36:31.036Z,91782.00
2023-04-01T00:37:31.016Z,91788.00
2023-04-01T00:38:31.035Z,91788.00
2023-04-01T00:39:31.066Z,91784.00
2023-04-01T00:40:31.073Z,91782.00
2023-04-01T00:41:31.078Z,91781.00
2023-04-01T00:42:31.105Z,91779.00
2023-04-01T00:43:31.127Z,91782.00
2023-04-01T00:44:31.128Z,91782.00
2023-04-01T00:45:31.399Z,91786.00
2023-04-01T00:46:31.147Z,91788.00
2023-04-01T00:47:31.194Z,91788.00
2023-04-01T00:48:31.146Z,91790.00
2023-04-01T00:49:31.136Z,91788.00
2023-04-01T00:50:31.122Z,91788.00
2023-04-01T00:51:31.115Z,91790.00
2023-04-01T00:52:31.119Z,91784.00
2023-04-01T00:53:31.134Z,91788.00
2023-04-01T00:54:31.150Z,91786.00
2023-04-01T00:55:31.316Z,91784.00
2023-04-01T00:56:31.130Z,91781.00
2023-04-01T00:57:31.238Z,91781.00
2023-04-01T00:58:31.144Z,91781.00
2023-04-01T00:59:31.176Z,91782.00
2023-04-01T01:00:31.142Z,91782.00
2023-04-01T01:01:31.159Z,91781.00
2023-04-01T01:02:31.216Z,91781.00
2023-04-01T01:03:32.087Z,91782.00
2023-04-01T01:04:31.074Z,91784.00
2023-04-01T01:05:34.212Z,91784.00
2023-04-01T01:06:31.025Z,91788.00
2023-04-01T01:07:30.993Z,91790.00
2023-04-01T01:08:30.994Z,91790.00
2023-04-01T01:09:31.039Z,91788.00
2023-04-01T01:10:30.965Z,91788.00
2023-04-01T01:12:31.013Z,91788.00
2023-04-01T01:13:31.000Z,91786.00
2023-04-01T01:14:30.998Z,91788.00
2023-04-01T01:15:31.201Z,91784.00
2023-04-01T01:16:31.039Z,91781.00
2023-04-01T01:17:31.004Z,91779.00
2023-04-01T01:18:31.005Z,91781.00
2023-04-01T01:19:30.986Z,91782.00
2023-04-01T01:20:30.984Z,91782.00
2023-04-01T01:21:31.030Z,91775.00
2023-04-01T01:22:31.040Z,91769.00
2023-04-01T01:23:31.071Z,91769.00
2023-04-01T01:24:31.124Z,91769.00
2023-04-01T01:25:31.233Z,91769.00
2023-04-01T01:26:31.107Z,91771.00
2023-04-01T01:27:31.090Z,91771.00
2023-04-01T01:28:31.095Z,91775.00
2023-04-01T01:29:31.090Z,91771.00
2023-04-01T01:30:31.089Z,91771.00
2023-04-01T01:31:31.071Z,91771.00
2023-04-01T01:32:31.096Z,91773.00
2023-04-01T01:33:31.034Z,91775.00
2023-04-01T01:34:31.054Z,91777.00
2023-04-01T01:35:31.287Z,91775.00
2023-04-01T01:36:31.048Z,91777.00
2023-04-01T01:37:31.014Z,91781.00
2023-04-01T01:38:30.998Z,91779.00
2023-04-01T01:39:31.037Z,91779.00
2023-04-01T01:40:31.039Z,91777.00
2023-04-01T01:41:31.038Z,91777.00
2023-04-01T01:42:31.025Z,91779.00
2023-04-01T01:43:31.030Z,91775.00
2023-04-01T01:44:31.006Z,91773.00
2023-04-01T01:45:31.127Z,91771.00
2023-04-01T01:46:30.966Z,91771.00
2023-04-01T01:47:30.982Z,91767.00
2023-04-01T01:48:30.934Z,91767.00
2023-04-01T01:49:30.920Z,91769.00
2023-04-01T01:50:30.901Z,91763.00
2023-04-01T01:51:31.327Z,91763.00
2023-04-01T01:52:30.870Z,91765.00
2023-04-01T01:53:30.854Z,91767.00
2023-04-01T01:54:30.834Z,91769.00
2023-04-01T01:55:31.003Z,91763.00
2023-04-01T01:56:30.800Z,91765.00
2023-04-01T01:57:30.842Z,91761.00
2023-04-01T01:58:30.795Z,91759.00
2023-04-01T01:59:30.783Z,91753.00
2023-04-01T02:00:30.765Z,91753.00
2023-04-01T02:01:30.779Z,91757.00
2023-04-01T02:02:30.748Z,91755.00
2023-04-01T02:03:30.710Z,91753.00
2023-04-01T02:04:30.722Z,91751.00
2023-04-01T02:05:30.889Z,91755.00
2023-04-01T02:06:30.678Z,91751.00
2023-04-01T02:07:30.656Z,91749.00
2023-04-01T02:08:30.643Z,91751.00
2023-04-01T02:09:30.624Z,91747.00
2023-04-01T02:10:30.610Z,91749.00
2023-04-01T02:11:30.600Z,91751.00
2023-04-01T02:12:30.581Z,91747.00
2023-04-01T02:13:30.556Z,91747.00
2023-04-01T02:14:30.576Z,91745.00
2023-04-01T02:15:30.798Z,91745.00
2023-04-01T02:16:30.688Z,91743.00
2023-04-01T02:17:30.559Z,91743.00
2023-04-01T02:18:30.498Z,91745.00
2023-04-01T02:19:30.495Z,91745.00
2023-04-01T02:20:30.470Z,91747.00
2023-04-01T02:21:30.461Z,91747.00
2023-04-01T02:22:30.432Z,91747.00
2023-04-01T02:23:30.407Z,91751.00
2023-04-01T02:24:30.397Z,91755.00
2023-04-01T02:25:30.503Z,91759.00
2023-04-01T02:26:30.372Z,91757.00
2023-04-01T02:27:30.342Z,91759.00
2023-04-01T02:28:30.333Z,91761.00
2023-04-01T02:29:30.314Z,91759.00
2023-04-01T02:30:30.299Z,91759.00
2023-04-01T02:31:30.354Z,91759.00
2023-04-01T02:32:30.298Z,91759.00
2023-04-01T02:33:30.260Z,91759.00
2023-04-01T02:34:30.291Z,91759.00
2023-04-01T02:35:30.432Z,91757.00
2023-04-01T02:36:30.302Z,91759.00
2023-04-01T02:37:30.259Z,91757.00
2023-04-01T02:38:30.257Z,91755.00
2023-04-01T02:39:30.258Z,91755.00
2023-04-01T02:40:30.246Z,91757.00
2023-04-01T02:41:30.225Z,91759.00
2023-04-01T02:42:30.222Z,91759.00
2023-04-01T02:43:30.192Z,91755.00
2023-04-01T02:44:30.175Z,91751.00
2023-04-01T02:45:30.179Z,91751.00
2023-04-01T02:46:30.174Z,91749.00
2023-04-01T02:47:30.159Z,91751.00
2023-04-01T02:48:30.107Z,91749.00
2023-04-01T02:49:30.109Z,91747.00
2023-04-01T02:50:30.086Z,91743.00
2023-04-01T02:51:31.098Z,91741.00
2023-04-01T02:52:30.061Z,91741.00
2023-04-01T02:53:30.043Z,91741.00
2023-04-01T02:54:30.836Z,91737.00
2023-04-01T02:55:30.021Z,91739.00
2023-04-01T02:56:30.002Z,91745.00
2023-04-01T02:57:30.148Z,91743.00
2023-04-01T02:58:29.986Z,91749.00
2023-04-01T02:59:29.983Z,91755.00
2023-04-01T03:00:29.962Z,91749.00
2023-04-01T03:01:29.974Z,91749.00
2023-04-01T03:02:30.041Z,91751.00
2023-04-01T03:03:29.965Z,91751.00
2023-04-01T03:04:29.923Z,91751.00
2023-04-01T03:05:29.940Z,91753.00
2023-04-01T03:06:29.932Z,91753.00
2023-04-01T03:07:29.909Z,91753.00
2023-04-01T03:08:29.891Z,91753.00
2023-04-01T03:09:30.347Z,91753.00
2023-04-01T03:10:29.895Z,91751.00
2023-04-01T03:11:29.898Z,91751.00
2023-04-01T03:12:29.906Z,91755.00
2023-04-01T03:13:29.883Z,91759.00
2023-04-01T03:14:29.887Z,91761.00
2023-04-01T03:15:29.879Z,91757.00
2023-04-01T03:16:29.936Z,91761.00
2023-04-01T03:17:29.869Z,91761.00
2023-04-01T03:18:29.845Z,91763.00
2023-04-01T03:19:29.821Z,91763.00
2023-04-01T03:20:29.807Z,91765.00
2023-04-01T03:21:29.809Z,91759.00
2023-04-01T03:22:29.796Z,91759.00
2023-04-01T03:23:29.780Z,91761.00
2023-04-01T03:24:29.784Z,91763.00
2023-04-01T03:25:29.755Z,91771.00
2023-04-01T03:26:29.783Z,91769.00
2023-04-01T03:27:29.747Z,91767.00
2023-04-01T03:28:29.735Z,91763.00
2023-04-01T03:29:29.740Z,91765.00
2023-04-01T03:30:29.801Z,91767.00
2023-04-01T03:31:29.790Z,91767.00
2023-04-01T03:32:29.716Z,91773.00
2023-04-01T03:33:29.702Z,91777.00
2023-04-01T03:34:29.676Z,91777.00
2023-04-01T03:35:29.665Z,91771.00
2023-04-01T03:36:29.703Z,91773.00
2023-04-01T03:37:29.647Z,91782.00
2023-04-01T03:38:29.629Z,91786.00
2023-04-01T03:39:29.638Z,91782.00
2023-04-01T03:40:29.617Z,91779.00
2023-04-01T03:41:29.604Z,91775.00
2023-04-01T03:42:29.633Z,91775.00
2023-04-01T03:43:29.584Z,91777.00
2023-04-01T03:44:29.585Z,91777.00
2023-04-01T03:45:29.616Z,91781.00
2023-04-01T03:46:29.580Z,91779.00
2023-04-01T03:47:29.566Z,91777.00
2023-04-01T03:48:29.528Z,91781.00
2023-04-01T03:49:29.530Z,91781.00
2023-04-01T03:50:31.065Z,91784.00
2023-04-01T03:51:29.494Z,91784.00
2023-04-01T03:52:29.490Z,91786.00
2023-04-01T03:53:29.472Z,91788.00
2023-04-01T03:54:29.496Z,91786.00
2023-04-01T03:55:29.469Z,91786.00
2023-04-01T03:56:29.459Z,91782.00
2023-04-01T03:57:29.568Z,91782.00
2023-04-01T03:58:29.444Z,91779.00
2023-04-01T03:59:29.427Z,91782.00
2023-04-01T04:00:29.431Z,91781.00
2023-04-01T04:01:29.412Z,91779.00
2023-04-01T04:02:29.486Z,91781.00
2023-04-01T04:03:29.581Z,91779.00
2023-04-01T04:04:29.408Z,91779.00
2023-04-01T04:05:29.379Z,91781.00
2023-04-01T04:06:29.383Z,91784.00
2023-04-01T04:07:29.372Z,91782.00
2023-04-01T04:08:29.348Z,91782.00
2023-04-01T04:09:29.352Z,91786.00
2023-04-01T04:10:29.333Z,91781.00
2023-04-01T04:11:29.345Z,91777.00
2023-04-01T04:12:29.390Z,91779.00
2023-04-01T04:13:29.323Z,91781.00
2023-04-01T04:14:29.341Z,91781.00
2023-04-01T04:15:29.307Z,91782.00
2023-04-01T04:16:29.550Z,91781.00
2023-04-01T04:17:29.321Z,91775.00
2023-04-01T04:18:29.290Z,91779.00
2023-04-01T04:19:29.305Z,91773.00
2023-04-01T04:20:29.279Z,91771.00
2023-04-01T04:21:29.288Z,91771.00
2023-04-01T04:22:29.264Z,91773.00
2023-04-01T04:23:29.262Z,91775.00
2023-04-01T04:24:29.247Z,91779.00
2023-04-01T04:25:29.254Z,91782.00
2023-04-01T04:26:29.241Z,91782.00
2023-04-01T04:27:29.243Z,91781.00
2023-04-01T04:28:29.218Z,91784.00
2023-04-01T04:29:29.212Z,91782.00
2023-04-01T04:30:29.206Z,91786.00
2023-04-01T04:31:29.225Z,91784.00
2023-04-01T04:32:30.057Z,91782.00
2023-04-01T04:33:29.181Z,91781.00
2023-04-01T04:34:29.189Z,91782.00
2023-04-01T04:35:29.200Z,91782.00
2023-04-01T04:36:29.163Z,91784.00
2023-04-01T04:37:29.153Z,91784.00
2023-04-01T04:38:29.136Z,91790.00
2023-04-01T04:39:29.130Z,91786.00
2023-04-01T04:40:29.123Z,91790.00
2023-04-01T04:41:29.126Z,91790.00
2023-04-01T04:42:29.113Z,91790.00
2023-04-01T04:43:29.105Z,91790.00
2023-04-01T04:44:29.095Z,91790.00
2023-04-01T04:45:29.081Z,91792.00
2023-04-01T04:46:29.090Z,91792.00
2023-04-01T04:47:29.155Z,91790.00
2023-04-01T04:48:29.062Z,91790.00
2023-04-01T04:49:29.073Z,91788.00
2023-04-01T04:50:29.064Z,91790.00
2023-04-01T04:51:29.058Z,91792.00
2023-04-01T04:52:29.051Z,91792.00
2023-04-01T04:53:29.876Z,91794.00
2023-04-01T04:54:29.048Z,91794.00
2023-04-01T04:55:29.015Z,91796.00
2023-04-01T04:56:29.029Z,91792.00
2023-04-01T04:57:29.036Z,91796.00
2023-04-01T04:58:28.990Z,91800.00
2023-04-01T04:59:28.993Z,91802.00
2023-04-01T05:00:28.984Z,91802.00
2023-04-01T05:01:29.045Z,91800.00
2023-04-01T05:02:29.053Z,91802.00
2023-04-01T05:03:29.058Z,91800.00
2023-04-01T05:04:28.934Z,91800.00
2023-04-01T05:05:28.930Z,91802.00
2023-04-01T05:06:28.923Z,91802.00
2023-04-01T05:07:28.919Z,91802.00
2023-04-01T05:08:28.915Z,91798.00
2023-04-01T05:09:28.918Z,91802.00
2023-04-01T05:10:28.905Z,91798.00
2023-04-01T05:11:28.918Z,91796.00
2023-04-01T05:12:28.908Z,91798.00
2023-04-01T05:13:28.880Z,91800.00
2023-04-01T05:14:28.896Z,91802.00
2023-04-01T05:15:28.895Z,91802.00
2023-04-01T05:16:28.908Z,91804.00
2023-04-01T05:17:28.944Z,91802.00
2023-04-01T05:18:28.886Z,91802.00
2023-04-01T05:19:28.876Z,91804.00
2023-04-01T05:20:28.903Z,91808.00
2023-04-01T05:21:28.882Z,91812.00
2023-04-01T05:22:28.869Z,91810.00
2023-04-01T05:23:28.850Z,91808.00
2023-04-01T05:24:28.853Z,91812.00
2023-04-01T05:25:28.839Z,91810.00
2023-04-01T05:26:28.837Z,91816.00
2023-04-01T05:27:28.831Z,91818.00
2023-04-01T05:28:28.806Z,91818.00
2023-04-01T05:29:28.804Z,91816.00
2023-04-01T05:30:28.811Z,91816.00
2023-04-01T05:31:28.878Z,91816.00
2023-04-01T05:32:28.833Z,91818.00
2023-04-01T05:33:28.764Z,91822.00
2023-04-01T05:34:28.770Z,91820.00
2023-04-01T05:35:28.796Z,91824.00
2023-04-01T05:36:28.762Z,91822.00
2023-04-01T05:37:28.745Z,91824.00
2023-04-01T05:38:28.747Z,91826.00
2023-04-01T05:39:28.740Z,91822.00
2023-04-01T05:40:28.744Z,91824.00
2023-04-01T05:41:28.736Z,91829.00
2023-04-01T05:42:28.745Z,91831.00
2023-04-01T05:43:28.724Z,91833.00
2023-04-01T05:44:28.729Z,91835.00
2023-04-01T05:45:28.739Z,91835.00
2023-04-01T05:46:28.795Z,91839.00
2023-04-01T05:47:28.757Z,91839.00
2023-04-01T05:48:28.734Z,91833.00
2023-04-01T05:49:29.022Z,91833.00
2023-04-01T05:50:28.731Z,91833.00
2023-04-01T05:51:28.720Z,91829.00
2023-04-01T05:52:28.748Z,91829.00
2023-04-01T05:53:28.718Z,91829.00
2023-04-01T05:54:28.736Z,91828.00
2023-04-01T05:55:29.397Z,91828.00
2023-04-01T05:56:28.719Z,91828.00
2023-04-01T05:57:29.446Z,91828.00
2023-04-01T05:58:28.717Z,91826.00
2023-04-01T05:59:28.707Z,91824.00
2023-04-01T06:00:28.740Z,91828.00
2023-04-01T06:01:28.711Z,91828.00
2023-04-01T06:02:28.774Z,91829.00
2023-04-01T06:03:28.742Z,91831.00
2023-04-01T06:04:28.748Z,91833.00
2023-04-01T06:05:28.703Z,91831.00
2023-04-01T06:06:28.697Z,91829.00
2023-04-01T06:07:28.693Z,91828.00
2023-04-01T06:08:28.690Z,91828.00
2023-04-01T06:09:28.690Z,91824.00
2023-04-01T06:10:28.707Z,91826.00
2023-04-01T06:11:28.694Z,91824.00
2023-04-01T06:12:28.692Z,91820.00
2023-04-01T06:13:28.660Z,91810.00
2023-04-01T06:14:28.674Z,91810.00
2023-04-01T06:15:28.673Z,91812.00
2023-04-01T06:16:28.714Z,91814.00
2023-04-01T06:17:28.716Z,91820.00
2023-04-01T06:18:28.660Z,91818.00
2023-04-01T06:19:28.665Z,91812.00
2023-04-01T06:20:28.663Z,91812.00
2023-04-01T06:21:28.681Z,91806.00
2023-04-01T06:22:28.667Z,91802.00
2023-04-01T06:23:28.647Z,91802.00
2023-04-01T06:24:28.646Z,91800.00
2023-04-01T06:25:28.662Z,91796.00
2023-04-01T06:26:28.649Z,91798.00
2023-04-01T06:27:28.685Z,91800.00
2023-04-01T06:28:28.684Z,91798.00
2023-04-01T06:29:28.646Z,91800.00
2023-04-01T06:30:28.652Z,91796.00
2023-04-01T06:31:28.735Z,91796.00
2023-04-01T06:32:28.691Z,91798.00
2023-04-01T06:33:28.631Z,91790.00
2023-04-01T06:34:28.640Z,91792.00
2023-04-01T06:35:28.643Z,91794.00
2023-04-01T06:36:28.704Z,91794.00
2023-04-01T06:37:28.633Z,91794.00
2023-04-01T06:38:28.693Z,91792.00
2023-04-01T06:39:28.621Z,91794.00
2023-04-01T06:40:28.608Z,91798.00
2023-04-01T06:41:28.618Z,91798.00
2023-04-01T06:42:28.601Z,91802.00
2023-04-01T06:43:28.611Z,91802.00
2023-04-01T06:44:28.593Z,91808.00
2023-04-01T06:45:28.655Z,91804.00
2023-04-01T06:46:28.687Z,91810.00
2023-04-01T06:47:28.604Z,91814.00
2023-04-01T06:48:28.597Z,91808.00
2023-04-01T06:49:28.591Z,91810.00
2023-04-01T06:50:28.589Z,91816.00
2023-04-01T06:51:28.573Z,91816.00
2023-04-01T06:52:28.572Z,91818.00
2023-04-01T06:53:28.920Z,91818.00
2023-04-01T06:54:28.576Z,91810.00
2023-04-01T06:55:28.577Z,91812.00
2023-04-01T06:56:28.570Z,91814.00
2023-04-01T06:57:28.601Z,91816.00
2023-04-01T06:58:28.567Z,91822.00
2023-04-01T06:59:28.560Z,91822.00
2023-04-01T07:00:28.557Z,91820.00
2023-04-01T07:01:28.641Z,91822.00
2023-04-01T07:02:28.840Z,91816.00
2023-04-01T07:03:28.548Z,91816.00
2023-04-01T07:04:28.597Z,91814.00
2023-04-01T07:05:28.552Z,91820.00
2023-04-01T07:06:28.548Z,91818.00
2023-04-01T07:07:28.547Z,91818.00
2023-04-01T07:08:28.557Z,91812.00
2023-04-01T07:09:28.552Z,91818.00
2023-04-01T07:10:28.556Z,91814.00
2023-04-01T07:11:28.537Z,91816.00
2023-04-01T07:12:28.542Z,91816.00
2023-04-01T07:13:28.538Z,91816.00
2023-04-01T07:14:28.528Z,91824.00
2023-04-01T07:15:28.527Z,91822.00
2023-04-01T07:16:28.532Z,91826.00
2023-04-01T07:17:28.541Z,91833.00
2023-04-01T07:18:28.516Z,91835.00
2023-04-01T07:19:28.504Z,91835.00
2023-04-01T07:20:28.518Z,91835.00
2023-04-01T07:21:28.513Z,91839.00
2023-04-01T07:22:28.500Z,91837.00
2023-04-01T07:23:28.511Z,91837.00
2023-04-01T07:24:28.485Z,91833.00
2023-04-01T07:25:28.489Z,91835.00
2023-04-01T07:26:28.488Z,91837.00
2023-04-01T07:27:28.472Z,91841.00
2023-04-01T07:28:28.472Z,91839.00
2023-04-01T07:29:30.470Z,91841.00
2023-04-01T07:30:28.464Z,91851.00
2023-04-01T07:31:28.483Z,91853.00
2023-04-01T07:32:28.519Z,91857.00
2023-04-01T07:33:28.458Z,91855.00
2023-04-01T07:34:28.447Z,91851.00
2023-04-01T07:35:28.433Z,91855.00
2023-04-01T07:36:28.424Z,91858.00
2023-04-01T07:37:28.429Z,91858.00
2023-04-01T07:38:28.477Z,91860.00
2023-04-01T07:39:28.429Z,91862.00
2023-04-01T07:40:28.438Z,91864.00
2023-04-01T07:41:28.405Z,91866.00
2023-04-01T07:42:28.406Z,91864.00
2023-04-01T07:43:28.417Z,91866.00
2023-04-01T07:44:28.406Z,91868.00
2023-04-01T07:45:28.402Z,91868.00
2023-04-01T07:46:28.393Z,91866.00
2023-04-01T07:47:28.407Z,91868.00
2023-04-01T07:48:28.382Z,91866.00
2023-04-01T07:49:28.376Z,91864.00
2023-04-01T07:50:28.439Z,91864.00
2023-04-01T07:51:28.368Z,91866.00
2023-04-01T07:52:28.372Z,91862.00
2023-04-01T07:53:28.359Z,91866.00
2023-04-01T07:54:28.367Z,91864.00
2023-04-01T07:55:28.367Z,91866.00
2023-04-01T07:56:28.370Z,91868.00
2023-04-01T07:57:28.435Z,91866.00
2023-04-01T07:58:28.361Z,91866.00
2023-04-01T07:59:28.346Z,91872.00
2023-04-01T08:00:28.349Z,91876.00
2023-04-01T08:01:28.340Z,91872.00
2023-04-01T08:02:28.402Z,91874.00
2023-04-01T08:03:28.440Z,91872.00
2023-04-01T08:04:28.361Z,91876.00
2023-04-01T08:05:28.347Z,91876.00
2023-04-01T08:06:28.351Z,91872.00
2023-04-01T08:07:28.340Z,91874.00
2023-04-01T08:08:28.347Z,91870.00
2023-04-01T08:09:28.327Z,91868.00
2023-04-01T08:10:32.956Z,91868.00
2023-04-01T08:11:28.318Z,91866.00
2023-04-01T08:12:28.371Z,91874.00
2023-04-01T08:13:28.293Z,91872.00
2023-04-01T08:14:28.940Z,91872.00
2023-04-01T08:15:28.359Z,91866.00
2023-04-01T08:16:28.244Z,91862.00
2023-04-01T08:17:28.242Z,91860.00
2023-04-01T08:18:28.190Z,91868.00
2023-04-01T08:19:28.166Z,91866.00
2023-04-01T08:20:28.154Z,91866.00
2023-04-01T08:21:28.125Z,91864.00
2023-04-01T08:22:28.106Z,91864.00
2023-04-01T08:23:28.078Z,91864.00
2023-04-01T08:24:34.334Z,91864.00
2023-04-01T08:25:29.040Z,91858.00
2023-04-01T08:26:28.006Z,91858.00
2023-04-01T08:27:28.002Z,91855.00
2023-04-01T08:28:27.975Z,91858.00
2023-04-01T08:29:27.956Z,91853.00
2023-04-01T08:30:27.938Z,91851.00
2023-04-01T08:31:27.928Z,91853.00
2023-04-01T08:32:27.900Z,91851.00
2023-04-01T08:33:27.871Z,91851.00
2023-04-01T08:34:27.850Z,91841.00
2023-04-01T08:35:28.887Z,91841.00
2023-04-01T08:36:27.825Z,91837.00
2023-04-01T08:37:27.779Z,91835.00
2023-04-01T08:38:27.760Z,91833.00
2023-04-01T08:39:27.748Z,91828.00
2023-04-01T08:40:27.717Z,91829.00
2023-04-01T08:41:27.703Z,91829.00
2023-04-01T08:42:27.664Z,91828.00
2023-04-01T08:43:27.651Z,91828.00
2023-04-01T08:44:27.682Z,91829.00
2023-04-01T08:45:27.667Z,91826.00
2023-04-01T08:46:27.605Z,91828.00
2023-04-01T08:47:27.633Z,91831.00
2023-04-01T08:48:27.543Z,91829.00
2023-04-01T08:49:27.528Z,91829.00
2023-04-01T08:50:27.493Z,91831.00
2023-04-01T08:51:27.487Z,91829.00
2023-04-01T08:52:27.473Z,91835.00
2023-04-01T08:53:27.430Z,91833.00
2023-04-01T08:54:27.404Z,91833.00
2023-04-01T08:55:27.395Z,91833.00
2023-04-01T08:56:27.359Z,91826.00
2023-04-01T08:57:27.408Z,91824.00
2023-04-01T08:58:27.298Z,91826.00
2023-04-01T08:59:27.275Z,91822.00
2023-04-01T09:00:27.263Z,91826.00
2023-04-01T09:01:27.240Z,91826.00
2023-04-01T09:02:27.333Z,91826.00
2023-04-01T09:03:27.260Z,91822.00
2023-04-01T09:04:27.260Z,91824.00
2023-04-01T09:05:27.181Z,91820.00
2023-04-01T09:06:27.186Z,91822.00
2023-04-01T09:07:27.175Z,91826.00
2023-04-01T09:08:27.178Z,91826.00
2023-04-01T09:09:27.180Z,91826.00
2023-04-01T09:10:27.146Z,91820.00
2023-04-01T09:11:27.179Z,91818.00
2023-04-01T09:12:27.124Z,91826.00
2023-04-01T09:13:27.114Z,91820.00
2023-04-01T09:14:27.098Z,91822.00
2023-04-01T09:15:27.082Z,91824.00
2023-04-01T09:16:27.139Z,91829.00
2023-04-01T09:17:27.089Z,91828.00
2023-04-01T09:18:27.038Z,91824.00
2023-04-01T09:19:27.075Z,91822.00
2023-04-01T09:20:27.006Z,91822.00
2023-04-01T09:21:27.004Z,91818.00
2023-04-01T09:22:27.002Z,91816.00
2023-04-01T09:23:26.976Z,91816.00
2023-04-01T09:24:26.994Z,91818.00
2023-04-01T09:25:26.981Z,91816.00
2023-04-01T09:26:26.940Z,91812.00
2023-04-01T09:27:26.922Z,91812.00
2023-04-01T09:28:26.909Z,91810.00
2023-04-01T09:29:26.947Z,91806.00
2023-04-01T09:30:26.879Z,91806.00
2023-04-01T09:31:26.920Z,91816.00
2023-04-01T09:32:26.908Z,91816.00
2023-04-01T09:33:26.868Z,91818.00
2023-04-01T09:34:26.866Z,91816.00
2023-04-01T09:35:26.855Z,91810.00
2023-04-01T09:36:26.837Z,91810.00
2023-04-01T09:37:26.810Z,91808.00
2023-04-01T09:38:26.796Z,91806.00
2023-04-01T09:39:26.791Z,91804.00
2023-04-01T09:40:26.778Z,91806.00
2023-04-01T09:41:26.769Z,91806.00
2023-04-01T09:42:26.756Z,91806.00
2023-04-01T09:43:26.737Z,91810.00
2023-04-01T09:44:26.732Z,91812.00
2023-04-01T09:45:26.708Z,91808.00
2023-04-01T09:46:26.712Z,91812.00
2023-04-01T09:47:26.713Z,91808.00
2023-04-01T09:48:26.660Z,91808.00
2023-04-01T09:49:26.652Z,91808.00
2023-04-01T09:50:26.643Z,91812.00
2023-04-01T09:51:26.642Z,91816.00
2023-04-01T09:52:26.629Z,91812.00
2023-04-01T09:53:26.631Z,91810.00
2023-04-01T09:54:26.630Z,91810.00
2023-04-01T09:55:26.630Z,91812.00
2023-04-01T09:56:26.597Z,91808.00
2023-04-01T09:57:26.683Z,91804.00
2023-04-01T09:58:26.560Z,91808.00
2023-04-01T09:59:26.530Z,91804.00
2023-04-01T10:00:26.534Z,91806.00
2023-04-01T10:01:26.544Z,91810.00
2023-04-01T10:02:26.548Z,91806.00
2023-04-01T10:03:28.388Z,91806.00
2023-04-01T10:04:26.461Z,91806.00
2023-04-01T10:05:26.512Z,91804.00
2023-04-01T10:06:26.419Z,91802.00
2023-04-01T10:07:26.385Z,91802.00
2023-04-01T10:08:26.373Z,91798.00
2023-04-01T10:09:26.377Z,91804.00
2023-04-01T10:10:26.334Z,91800.00
2023-04-01T10:11:26.325Z,91798.00
2023-04-01T10:12:26.336Z,91800.00
2023-04-01T10:13:26.278Z,91800.00
2023-04-01T10:14:26.264Z,91796.00
2023-04-01T10:15:26.274Z,91796.00
2023-04-01T10:16:26.283Z,91798.00
2023-04-01T10:17:26.214Z,91796.00
2023-04-01T10:18:26.193Z,91792.00
2023-04-01T10:19:26.183Z,91792.00
2023-04-01T10:20:26.173Z,91790.00
2023-04-01T10:21:26.145Z,91790.00
2023-04-01T10:22:26.134Z,91790.00
2023-04-01T10:23:26.116Z,91790.00
2023-04-01T10:24:26.097Z,91788.00
2023-04-01T10:25:26.091Z,91788.00
2023-04-01T10:26:26.076Z,91788.00
2023-04-01T10:27:26.051Z,91788.00
2023-04-01T10:28:26.067Z,91788.00
2023-04-01T10:29:26.022Z,91790.00
2023-04-01T10:30:25.995Z,91786.00
2023-04-01T10:31:25.987Z,91788.00
2023-04-01T10:32:25.977Z,91788.00
2023-04-01T10:33:25.940Z,91784.00
2023-04-01T10:34:25.927Z,91784.00
2023-04-01T10:35:25.902Z,91784.00
2023-04-01T10:36:25.904Z,91781.00
2023-04-01T10:37:25.874Z,91781.00
2023-04-01T10:38:26.908Z,91782.00
2023-04-01T10:39:25.837Z,91786.00
2023-04-01T10:40:25.845Z,91788.00
2023-04-01T10:41:25.809Z,91786.00
2023-04-01T10:42:25.800Z,91784.00
2023-04-01T10:43:25.849Z,91782.00
2023-04-01T10:44:26.044Z,91781.00
2023-04-01T10:45:25.920Z,91777.00
2023-04-01T10:46:26.033Z,91777.00
2023-04-01T10:47:26.012Z,91775.00
2023-04-01T10:48:25.994Z,91779.00
2023-04-01T10:49:25.982Z,91777.00
2023-04-01T10:50:26.033Z,91777.00
2023-04-01T10:51:26.020Z,91773.00
2023-04-01T10:52:26.067Z,91779.00
2023-04-01T10:53:26.098Z,91779.00
2023-04-01T10:54:26.150Z,91777.00
2023-04-01T10:55:26.158Z,91775.00
2023-04-01T10:56:26.161Z,91777.00
2023-04-01T10:57:26.227Z,91775.00
2023-04-01T10:58:26.252Z,91775.00
2023-04-01T10:59:26.250Z,91773.00
2023-04-01T11:00:26.308Z,91775.00
2023-04-01T11:01:26.361Z,91773.00
2023-04-01T11:02:26.397Z,91771.00
2023-04-01T11:03:26.473Z,91767.00
2023-04-01T11:04:26.477Z,91773.00
2023-04-01T11:05:26.528Z,91767.00
2023-04-01T11:06:26.569Z,91779.00
2023-04-01T11:07:26.620Z,91773.00
2023-04-01T11:08:26.693Z,91769.00
2023-04-01T11:09:26.706Z,91775.00
2023-04-01T11:10:26.751Z,91771.00
2023-04-01T11:11:26.806Z,91773.00
2023-04-01T11:12:26.817Z,91767.00
2023-04-01T11:13:26.867Z,91775.00
2023-04-01T11:14:26.916Z,91773.00
2023-04-01T11:15:26.963Z,91779.00
2023-04-01T11:16:27.054Z,91779.00
2023-04-01T11:17:27.129Z,91781.00
2023-04-01T11:18:27.107Z,91790.00
2023-04-01T11:19:27.129Z,91781.00
2023-04-01T11:20:27.191Z,91782.00
2023-04-01T11:21:27.209Z,91784.00
2023-04-01T11:22:27.296Z,91786.00
2023-04-01T11:23:27.317Z,91784.00
2023-04-01T11:24:27.369Z,91781.00
2023-04-01T11:25:27.406Z,91784.00
2023-04-01T11:26:27.451Z,91782.00
2023-04-01T11:27:27.481Z,91779.00
2023-04-01T11:28:27.532Z,91777.00
2023-04-01T11:29:27.575Z,91782.00
2023-04-01T11:30:27.613Z,91782.00
2023-04-01T11:31:27.731Z,91786.00
2023-04-01T11:32:27.726Z,91786.00
2023-04-01T11:33:27.740Z,91784.00
2023-04-01T11:34:27.769Z,91788.00
2023-04-01T11:35:27.828Z,91798.00
2023-04-01T11:36:27.910Z,91798.00
2023-04-01T11:37:27.905Z,91798.00
2023-04-01T11:38:27.948Z,91792.00
2023-04-01T11:39:27.984Z,91796.00
2023-04-01T11:40:28.032Z,91788.00
2023-04-01T11:41:28.088Z,91792.00
2023-04-01T11:42:28.136Z,91784.00
2023-04-01T11:43:33.483Z,91792.00
2023-04-01T11:44:29.156Z,91790.00
2023-04-01T11:45:28.136Z,91794.00